Time;durP1;ratioP1;P1;durP2;ratioP2;P2;SDS_P1;SDS_P2;PMS_P1;PMS_P2;Temp;Humidity;BMP_temperature;BMP_pressure;BME280_temperature;BME280_humidity;BME280_pressure;Samples;Min_cycle;Max_cycle;Signal;HPM_P1;HPM_P2
2023/10/20 00:01:19;;;;;;;10.67;9.67;;;16.60;99.90;;;;;;5038510;28;20384;-70
2023/10/20 00:03:44;;;;;;;11.90;10.90;;;16.60;99.90;;;;;;5038710;28;20286;-71
2023/10/20 00:06:11;;;;;;;10.70;9.70;;;16.60;99.90;;;;;;5031284;28;20640;-71
2023/10/20 00:08:36;;;;;;;10.80;9.80;;;16.60;99.90;;;;;;5033080;28;20181;-71
2023/10/20 00:11:07;;;;;;;12.63;11.27;;;16.60;99.90;;;;;;5032507;28;20425;-63
2023/10/20 00:13:34;;;;;;;11.73;10.60;;;16.60;99.90;;;;;;5028480;28;20173;-71
2023/10/20 00:16:00;;;;;;;11.97;10.87;;;16.60;99.90;;;;;;5045776;28;20531;-71
2023/10/20 00:18:25;;;;;;;11.10;10.00;;;16.60;99.90;;;;;;5048756;28;20417;-71
2023/10/20 00:20:51;;;;;;;10.17;9.30;;;16.60;99.90;;;;;;5051106;28;20174;-71
2023/10/20 00:23:17;;;;;;;10.47;9.57;;;16.60;99.90;;;;;;5051427;28;20168;-71
2023/10/20 00:25:43;;;;;;;11.63;10.00;;;16.60;99.90;;;;;;5050974;28;20189;-71
2023/10/20 00:28:09;;;;;;;11.03;10.20;;;16.70;99.90;;;;;;5039440;28;20189;-71
2023/10/20 00:30:37;;;;;;;11.63;10.63;;;16.70;99.90;;;;;;5031661;28;20433;-71
2023/10/20 00:33:03;;;;;;;10.20;9.50;;;16.70;99.90;;;;;;5032162;28;20498;-63
2023/10/20 00:35:29;;;;;;;10.80;9.90;;;16.80;99.90;;;;;;5031865;28;20572;-71
2023/10/20 00:37:56;;;;;;;10.07;9.13;;;16.70;99.90;;;;;;5032967;28;20536;-71
2023/10/20 00:40:21;;;;;;;9.80;8.80;;;16.80;99.90;;;;;;5030568;28;20441;-71
2023/10/20 00:42:47;;;;;;;9.90;8.93;;;16.70;99.90;;;;;;5014313;28;20415;-71
2023/10/20 00:45:13;;;;;;;9.27;8.50;;;16.70;99.90;;;;;;5049040;28;20579;-71
2023/10/20 00:47:39;;;;;;;10.20;9.33;;;16.60;99.90;;;;;;5036737;28;20178;-71
2023/10/20 00:50:11;;;;;;;10.17;9.37;;;16.60;99.90;;;;;;5013772;28;20224;-63
2023/10/20 00:52:38;;;;;;;12.40;8.93;;;16.60;99.90;;;;;;5037321;28;20417;-71
2023/10/20 00:55:08;;;;;;;10.00;9.10;;;16.70;99.90;;;;;;5046219;28;20460;-62
2023/10/20 00:57:35;;;;;;;11.57;9.30;;;16.70;99.90;;;;;;5032225;28;20405;-71
2023/10/20 01:00:04;;;;;;;9.23;8.53;;;16.70;99.90;;;;;;5031999;28;20413;-71
2023/10/20 01:02:30;;;;;;;8.87;8.10;;;16.80;99.90;;;;;;5031130;28;20564;-71
2023/10/20 01:04:59;;;;;;;9.33;8.53;;;16.80;99.90;;;;;;5031897;28;20969;-71
2023/10/20 01:07:25;;;;;;;10.80;8.80;;;16.80;99.90;;;;;;5043484;28;20405;-71
2023/10/20 01:09:51;;;;;;;8.67;7.87;;;16.80;99.90;;;;;;5041092;28;20433;-71
2023/10/20 01:12:17;;;;;;;9.97;8.90;;;16.80;99.90;;;;;;5030915;28;20186;-71
2023/10/20 01:14:42;;;;;;;8.73;8.10;;;16.80;99.90;;;;;;5036131;28;20256;-71
2023/10/20 01:17:10;;;;;;;9.77;8.97;;;16.80;99.90;;;;;;5049605;28;20182;-67
2023/10/20 01:19:39;;;;;;;9.40;8.70;;;16.90;99.90;;;;;;5034085;28;20514;-71
2023/10/20 01:22:05;;;;;;;9.63;8.73;;;16.90;99.90;;;;;;5051655;28;20734;-63
2023/10/20 01:24:31;;;;;;;10.00;8.97;;;16.80;99.90;;;;;;5054352;28;20487;-71
2023/10/20 01:26:56;;;;;;;8.80;8.20;;;16.80;99.90;;;;;;5040830;28;20174;-71
2023/10/20 01:29:23;;;;;;;9.07;8.40;;;16.80;99.90;;;;;;5048171;28;20943;-71
2023/10/20 01:31:49;;;;;;;10.07;9.27;;;16.80;99.90;;;;;;5035513;28;20204;-71
2023/10/20 01:34:15;;;;;;;10.50;9.53;;;16.80;99.90;;;;;;5034919;28;20420;-71
2023/10/20 01:36:41;;;;;;;9.87;8.97;;;16.80;99.90;;;;;;5035688;28;20177;-71
2023/10/20 01:39:08;;;;;;;10.20;9.40;;;16.90;99.90;;;;;;5035094;28;20589;-63
2023/10/20 01:41:33;;;;;;;10.00;8.53;;;16.90;99.90;;;;;;5039485;28;20435;-71
2023/10/20 01:43:59;;;;;;;10.30;9.40;;;16.90;99.90;;;;;;5055476;28;20404;-71
2023/10/20 01:46:25;;;;;;;9.30;8.60;;;16.90;99.90;;;;;;5038454;28;20273;-71
2023/10/20 01:48:51;;;;;;;9.77;9.07;;;16.90;99.90;;;;;;5036799;28;20171;-69
2023/10/20 01:51:17;;;;;;;8.60;7.90;;;16.90;99.90;;;;;;5051095;28;20170;-71
2023/10/20 01:53:43;;;;;;;8.77;8.07;;;16.90;99.90;;;;;;5053426;28;20173;-71
2023/10/20 01:56:09;;;;;;;9.53;8.73;;;16.90;99.90;;;;;;5042923;28;20461;-63
2023/10/20 01:58:34;;;;;;;9.03;8.30;;;17.00;99.90;;;;;;5034982;28;20277;-71
2023/10/20 02:01:00;;;;;;;8.97;8.07;;;16.90;99.90;;;;;;5048028;28;20596;-71
2023/10/20 02:03:26;;;;;;;8.87;8.17;;;17.00;99.90;;;;;;5050592;28;20174;-71
2023/10/20 02:05:52;;;;;;;9.53;8.63;;;17.00;99.90;;;;;;5035450;28;20182;-71
2023/10/20 02:08:17;;;;;;;9.13;8.23;;;17.00;99.90;;;;;;5033735;28;20533;-71
2023/10/20 02:10:44;;;;;;;8.90;8.20;;;17.00;99.90;;;;;;5035151;28;20170;-71
2023/10/20 02:13:10;;;;;;;8.40;7.70;;;17.00;99.90;;;;;;5034293;28;20249;-63
2023/10/20 02:15:36;;;;;;;8.87;8.17;;;17.00;99.90;;;;;;5034594;28;20544;-71
2023/10/20 02:18:02;;;;;;;9.37;8.60;;;17.00;99.90;;;;;;5048063;28;20180;-70
2023/10/20 02:20:27;;;;;;;8.90;8.20;;;17.00;99.90;;;;;;5038384;28;20186;-71
2023/10/20 02:22:53;;;;;;;9.20;8.50;;;17.00;99.90;;;;;;5048165;28;20459;-71
2023/10/20 02:25:20;;;;;;;10.03;9.13;;;17.00;99.90;;;;;;5016398;28;20228;-70
2023/10/20 02:27:47;;;;;;;9.70;8.90;;;17.00;99.90;;;;;;5034345;28;20180;-70
2023/10/20 02:30:14;;;;;;;9.27;8.37;;;17.00;99.90;;;;;;5033663;28;20433;-66
2023/10/20 02:32:41;;;;;;;8.87;8.17;;;17.00;99.90;;;;;;5034321;28;20518;-71
2023/10/20 02:35:08;;;;;;;8.70;7.97;;;17.00;99.90;;;;;;5043846;28;20447;-71
2023/10/20 02:37:34;;;;;;;10.77;9.87;;;17.00;99.90;;;;;;5052903;28;20907;-71
2023/10/20 02:40:04;;;;;;;10.33;9.50;;;17.10;99.90;;;;;;5035386;28;20412;-70
2023/10/20 02:42:33;;;;;;;10.27;9.37;;;17.10;99.90;;;;;;5033617;28;20515;-71
2023/10/20 02:44:59;;;;;;;10.47;9.57;;;17.10;99.90;;;;;;5034669;28;20424;-71
2023/10/20 02:47:25;;;;;;;10.60;9.63;;;17.00;99.90;;;;;;5015962;28;20745;-71
2023/10/20 02:49:58;;;;;;;10.93;10.03;;;17.00;99.90;;;;;;5033103;28;20921;-71
2023/10/20 02:52:25;;;;;;;9.43;8.63;;;16.90;99.90;;;;;;5051671;28;20447;-70
2023/10/20 02:54:55;;;;;;;10.50;9.70;;;16.90;99.90;;;;;;5053530;28;20452;-71
2023/10/20 02:57:21;;;;;;;11.03;10.13;;;17.00;99.90;;;;;;5053284;28;20736;-71
2023/10/20 02:59:49;;;;;;;10.97;10.17;;;17.00;99.90;;;;;;5038298;28;20441;-71
2023/10/20 03:02:20;;;;;;;11.20;10.20;;;16.90;99.90;;;;;;5032934;28;20417;-68
2023/10/20 03:04:46;;;;;;;10.97;10.17;;;16.90;99.90;;;;;;5033907;28;20417;-68
2023/10/20 03:07:12;;;;;;;10.50;9.70;;;16.80;99.90;;;;;;5033692;28;20398;-63
2023/10/20 03:09:38;;;;;;;10.40;9.60;;;16.80;99.90;;;;;;5033827;28;20421;-71
2023/10/20 03:12:04;;;;;;;10.20;9.40;;;16.80;99.90;;;;;;5017991;28;20412;-71
2023/10/20 03:14:31;;;;;;;10.30;9.33;;;16.90;99.90;;;;;;5017496;28;20198;-72
2023/10/20 03:16:57;;;;;;;10.53;9.63;;;16.90;99.90;;;;;;5033362;28;20467;-71
2023/10/20 03:19:23;;;;;;;11.03;10.20;;;16.90;99.90;;;;;;5033167;28;20916;-72
2023/10/20 03:21:48;;;;;;;10.00;9.20;;;16.90;99.90;;;;;;5051733;28;20455;-65
2023/10/20 03:24:14;;;;;;;9.77;9.07;;;16.70;99.90;;;;;;5033055;28;20178;-63
2023/10/20 03:26:42;;;;;;;11.00;10.10;;;16.70;99.90;;;;;;5033239;28;20174;-72
2023/10/20 03:29:07;;;;;;;9.97;9.03;;;16.60;99.90;;;;;;5033763;28;20569;-71
2023/10/20 03:31:34;;;;;;;10.37;9.40;;;16.50;99.90;;;;;;5032486;28;20427;-71
2023/10/20 03:33:59;;;;;;;11.00;10.00;;;16.50;99.90;;;;;;5033219;28;20280;-71
2023/10/20 03:36:27;;;;;;;10.50;9.60;;;16.50;99.90;;;;;;5032643;28;20925;-71
2023/10/20 03:38:53;;;;;;;10.37;9.47;;;16.50;99.90;;;;;;5033752;28;20257;-71
2023/10/20 03:41:19;;;;;;;11.17;10.07;;;16.50;99.90;;;;;;5032332;28;20493;-70
2023/10/20 03:43:44;;;;;;;22.13;8.93;;;16.60;99.90;;;;;;5016114;28;20228;-71
2023/10/20 03:46:13;;;;;;;11.93;11.00;;;16.60;99.90;;;;;;5033256;28;20459;-72
2023/10/20 03:48:40;;;;;;;10.50;9.63;;;16.60;99.90;;;;;;5031579;28;20626;-71
2023/10/20 03:51:11;;;;;;;12.17;11.10;;;16.60;99.90;;;;;;5021725;28;20408;-71
2023/10/20 03:53:46;;;;;;;15.43;12.67;;;16.60;99.90;;;;;;5052289;28;21451;-71
2023/10/20 03:56:12;;;;;;;10.93;10.03;;;16.70;99.90;;;;;;5037488;28;20525;-72
2023/10/20 03:58:38;;;;;;;10.67;9.50;;;16.70;99.90;;;;;;5032182;28;20913;-71
2023/10/20 04:01:06;;;;;;;10.90;9.90;;;16.70;99.90;;;;;;5032762;28;20415;-71
2023/10/20 04:03:32;;;;;;;9.90;9.00;;;16.70;99.90;;;;;;5031960;28;20629;-72
2023/10/20 04:06:00;;;;;;;11.33;10.30;;;16.70;99.90;;;;;;5038889;28;20515;-72
2023/10/20 04:08:26;;;;;;;16.57;14.73;;;16.70;99.90;;;;;;5034022;28;20867;-71
2023/10/20 04:10:59;;;;;;;10.30;9.40;;;16.80;99.90;;;;;;5032805;28;20417;-72
2023/10/20 04:13:25;;;;;;;612.00;411.20;;;16.70;99.90;;;;;;5031472;28;20417;-75
2023/10/20 04:15:54;;;;;;;93.20;72.20;;;16.80;99.90;;;;;;5032280;28;20477;-71
2023/10/20 04:18:20;;;;;;;13.20;12.00;;;16.80;99.90;;;;;;5036474;28;20461;-67
2023/10/20 04:20:48;;;;;;;16.13;14.43;;;16.80;99.90;;;;;;5046116;28;20424;-70
2023/10/20 04:23:17;;;;;;;12.00;10.80;;;16.80;99.90;;;;;;5038114;28;20435;-70
2023/10/20 04:25:52;;;;;;;9.30;8.50;;;16.80;99.90;;;;;;5031927;28;20556;-70
2023/10/20 04:28:32;;;;;;;13.30;12.00;;;16.70;99.90;;;;;;5032155;28;20494;-63
2023/10/20 04:50:17;;;;;;;9.17;8.47;;;16.90;99.90;;;;;;5033663;28;20452;-69
2023/10/20 04:57:53;;;;;;;9.50;8.63;;;16.90;99.90;;;;;;5051400;28;20404;-73
2023/10/20 05:10:37;;;;;;;12.90;11.70;;;16.90;99.90;;;;;;5051302;28;21343;-74
2023/10/20 05:13:03;;;;;;;11.83;9.70;;;16.90;99.90;;;;;;5042750;28;20437;-74
2023/10/20 05:15:32;;;;;;;11.50;10.50;;;17.00;99.90;;;;;;5031119;28;20533;-74
2023/10/20 05:17:58;;;;;;;11.83;9.63;;;17.00;99.90;;;;;;5048319;28;20490;-74
2023/10/20 05:20:24;;;;;;;8.93;8.33;;;17.00;99.90;;;;;;5032185;28;20425;-74
2023/10/20 05:22:50;;;;;;;11.57;10.47;;;17.00;99.90;;;;;;5031299;28;20184;-74
2023/10/20 05:25:16;;;;;;;9.87;8.97;;;17.00;99.90;;;;;;5031915;28;20188;-73
2023/10/20 05:27:45;;;;;;;12.73;11.60;;;17.00;99.90;;;;;;5043509;28;20555;-74
2023/10/20 05:30:11;;;;;;;12.50;11.23;;;17.10;99.90;;;;;;5050236;28;20412;-73
2023/10/20 05:32:37;;;;;;;9.13;8.33;;;17.10;99.90;;;;;;5025466;28;20512;-72
2023/10/20 05:35:04;;;;;;;9.03;8.13;;;17.10;99.90;;;;;;5069619;28;20507;-72
2023/10/20 05:37:33;;;;;;;11.97;10.77;;;17.10;99.90;;;;;;5069712;28;20807;-73
2023/10/20 05:39:58;;;;;;;10.73;9.73;;;17.00;99.90;;;;;;5065046;28;20422;-73
2023/10/20 05:42:24;;;;;;;15.40;10.43;;;17.10;99.90;;;;;;5066188;28;20771;-70
2023/10/20 05:47:34;;;;;;;12.83;11.50;;;17.00;99.90;;;;;;5057856;28;20667;-73
2023/10/20 05:50:01;;;;;;;11.27;10.07;;;17.00;99.90;;;;;;5052814;28;20487;-75
2023/10/20 05:52:27;;;;;;;10.47;9.57;;;17.00;99.90;;;;;;5065568;28;20815;-69
2023/10/20 05:54:56;;;;;;;9.43;8.70;;;17.00;99.90;;;;;;5069982;28;20463;-69
2023/10/20 05:57:22;;;;;;;10.60;9.70;;;17.00;99.90;;;;;;5056724;28;20933;-63
2023/10/20 05:59:48;;;;;;;9.77;8.97;;;17.00;99.90;;;;;;5051764;28;20503;-70
2023/10/20 06:02:14;;;;;;;10.33;9.43;;;17.00;99.90;;;;;;5051290;28;20419;-70
2023/10/20 06:04:40;;;;;;;10.20;9.30;;;17.00;99.90;;;;;;5050707;28;20432;-69
2023/10/20 06:07:07;;;;;;;10.13;9.23;;;17.00;99.90;;;;;;5056702;28;20431;-70
2023/10/20 06:09:32;;;;;;;10.07;9.17;;;17.00;99.90;;;;;;5064640;28;20184;-72
2023/10/20 06:11:59;;;;;;;10.87;9.87;;;16.90;99.90;;;;;;5070706;28;20794;-71
2023/10/20 06:14:25;;;;;;;9.33;8.53;;;16.90;99.90;;;;;;5054319;28;20435;-65
2023/10/20 06:16:52;;;;;;;11.47;10.57;;;16.90;99.90;;;;;;5059893;28;20965;-71
2023/10/20 06:19:17;;;;;;;12.50;11.40;;;16.80;99.90;;;;;;5054862;28;20419;-70
2023/10/20 06:21:43;;;;;;;11.20;10.30;;;16.90;99.90;;;;;;5058746;28;20563;-70
2023/10/20 06:24:09;;;;;;;12.10;11.07;;;16.80;99.90;;;;;;5066503;28;20675;-74
2023/10/20 06:26:35;;;;;;;10.60;9.63;;;16.80;99.90;;;;;;5055235;28;20424;-71
2023/10/20 06:29:02;;;;;;;12.97;11.67;;;16.80;99.90;;;;;;5073875;28;20527;-69
2023/10/20 06:31:41;;;;;;;11.90;10.70;;;16.80;99.90;;;;;;5065904;28;20408;-71
2023/10/20 06:34:26;;;;;;;13.20;12.10;;;16.70;99.90;;;;;;5042661;28;20542;-72
2023/10/20 06:37:08;;;;;;;12.73;11.53;;;16.70;99.90;;;;;;5047733;28;20466;-70
2023/10/20 06:39:37;;;;;;;12.97;11.77;;;16.70;99.90;;;;;;5039090;28;20893;-70
2023/10/20 06:42:03;;;;;;;13.27;11.87;;;16.70;99.90;;;;;;5039505;28;20421;-71
2023/10/20 06:44:29;;;;;;;13.13;11.83;;;16.70;99.90;;;;;;5019025;28;20437;-71
2023/10/20 06:46:56;;;;;;;14.80;13.30;;;16.70;99.90;;;;;;5035118;28;20435;-71
2023/10/20 06:49:23;;;;;;;15.13;12.80;;;16.70;99.90;;;;;;5040602;28;20435;-72
2023/10/20 06:51:49;;;;;;;14.30;12.80;;;16.70;99.90;;;;;;5034347;28;20834;-71
2023/10/20 06:54:16;;;;;;;13.73;12.43;;;16.70;99.90;;;;;;5035021;28;20436;-72
2023/10/20 06:56:42;;;;;;;13.90;12.67;;;16.60;99.90;;;;;;5033463;28;20478;-71
2023/10/20 06:59:13;;;;;;;14.13;12.73;;;16.50;99.90;;;;;;5039892;28;20506;-71
2023/10/20 07:01:40;;;;;;;14.50;13.07;;;16.50;99.90;;;;;;5046798;28;20424;-71
2023/10/20 07:04:08;;;;;;;13.80;12.50;;;16.50;99.90;;;;;;5036834;28;20417;-71
2023/10/20 07:06:36;;;;;;;15.47;13.87;;;16.40;99.90;;;;;;5033386;28;20412;-71
2023/10/20 07:09:11;;;;;;;13.30;12.00;;;16.50;99.90;;;;;;5016309;28;20920;-71
2023/10/20 07:11:42;;;;;;;14.23;12.83;;;16.40;99.90;;;;;;5043948;28;20436;-71
2023/10/20 07:14:10;;;;;;;13.90;12.60;;;16.30;99.90;;;;;;5053703;28;20495;-71
2023/10/20 07:16:36;;;;;;;13.10;11.90;;;16.40;99.90;;;;;;5041327;28;20456;-70
2023/10/20 07:19:03;;;;;;;13.23;11.93;;;16.40;99.90;;;;;;5034153;28;20512;-69
2023/10/20 07:21:29;;;;;;;17.40;15.70;;;16.40;99.90;;;;;;5044630;28;20846;-63
2023/10/20 07:23:57;;;;;;;14.53;13.03;;;16.40;99.90;;;;;;5034046;28;20405;-69
2023/10/20 07:26:24;;;;;;;14.80;13.40;;;16.40;99.90;;;;;;5034032;28;20467;-69
2023/10/20 07:28:50;;;;;;;15.07;13.70;;;16.30;99.90;;;;;;5034506;28;20416;-68
2023/10/20 07:31:21;;;;;;;12.30;10.90;;;16.40;99.90;;;;;;5036808;28;20405;-68
2023/10/20 07:33:49;;;;;;;14.23;12.93;;;16.30;99.90;;;;;;5046260;28;20812;-70
2023/10/20 07:36:16;;;;;;;14.47;13.13;;;16.30;99.90;;;;;;5052505;28;20459;-70
2023/10/20 07:38:42;;;;;;;12.60;11.40;;;16.30;99.90;;;;;;5051007;28;20723;-69
2023/10/20 07:41:11;;;;;;;14.70;13.30;;;16.30;99.90;;;;;;5053569;28;20407;-68
2023/10/20 07:43:38;;;;;;;11.93;10.83;;;16.30;99.90;;;;;;5041748;28;20504;-73
2023/10/20 07:46:04;;;;;;;13.33;12.13;;;16.30;99.90;;;;;;5033529;28;20405;-67
2023/10/20 07:48:32;;;;;;;13.10;11.90;;;16.30;99.90;;;;;;5041206;28;20427;-67
2023/10/20 07:50:59;;;;;;;12.20;11.10;;;16.30;99.90;;;;;;5038805;28;20177;-66
2023/10/20 07:53:26;;;;;;;12.43;11.27;;;16.20;99.90;;;;;;5034325;28;20417;-66
2023/10/20 07:55:51;;;;;;;12.20;11.20;;;16.20;99.90;;;;;;5031926;28;20483;-66
2023/10/20 07:58:17;;;;;;;12.20;10.90;;;16.20;99.90;;;;;;5048647;28;20420;-66
2023/10/20 08:00:43;;;;;;;12.83;11.63;;;16.10;99.90;;;;;;5052075;28;20540;-66
2023/10/20 08:03:11;;;;;;;11.47;10.57;;;16.10;99.90;;;;;;5033793;28;20434;-66
2023/10/20 08:05:37;;;;;;;11.37;10.40;;;16.20;99.90;;;;;;5033833;28;20205;-65
2023/10/20 08:08:04;;;;;;;11.50;10.50;;;16.20;99.90;;;;;;5053148;28;20412;-65
2023/10/20 08:10:30;;;;;;;12.20;11.10;;;16.20;99.90;;;;;;5052517;28;20407;-65
2023/10/20 08:12:56;;;;;;;11.57;10.57;;;16.20;99.90;;;;;;5052189;28;20495;-65
2023/10/20 08:15:23;;;;;;;14.10;11.60;;;16.20;99.90;;;;;;5052690;28;20462;-65
2023/10/20 08:17:50;;;;;;;11.30;10.30;;;16.20;99.90;;;;;;5050204;28;20266;-65
2023/10/20 08:20:16;;;;;;;11.87;10.77;;;16.20;99.90;;;;;;5052735;28;20495;-65
2023/10/20 08:22:43;;;;;;;10.60;9.63;;;16.20;99.90;;;;;;5051779;28;20411;-65
2023/10/20 08:25:09;;;;;;;11.30;10.40;;;16.10;99.90;;;;;;5052446;28;20962;-65
2023/10/20 08:27:35;;;;;;;9.67;8.90;;;16.20;99.90;;;;;;5051617;28;20419;-65
2023/10/20 08:30:02;;;;;;;11.00;10.20;;;16.20;99.90;;;;;;5052750;28;20408;-65
2023/10/20 08:32:28;;;;;;;9.87;9.00;;;16.20;99.90;;;;;;5042226;28;20238;-65
2023/10/20 08:34:54;;;;;;;12.47;11.47;;;16.20;99.90;;;;;;5071146;28;20961;-65
2023/10/20 08:37:20;;;;;;;11.47;10.47;;;16.20;99.90;;;;;;5072480;28;20395;-65
2023/10/20 08:39:46;;;;;;;10.30;9.50;;;16.20;99.90;;;;;;5071545;28;20422;-65
2023/10/20 08:42:19;;;;;;;10.70;9.70;;;16.20;99.90;;;;;;5072414;28;20893;-65
2023/10/20 08:44:45;;;;;;;10.60;9.70;;;16.30;99.90;;;;;;5071603;28;20526;-65
2023/10/20 08:47:15;;;;;;;10.20;9.37;;;16.20;99.90;;;;;;5070571;28;20423;-65
2023/10/20 08:49:42;;;;;;;10.80;10.00;;;16.30;99.90;;;;;;5071475;28;20399;-65
2023/10/20 08:52:11;;;;;;;11.80;10.87;;;16.30;99.90;;;;;;5072352;28;20456;-65
2023/10/20 08:54:37;;;;;;;11.20;10.20;;;16.30;99.90;;;;;;5071115;28;20784;-65
2023/10/20 08:57:04;;;;;;;10.60;9.80;;;16.30;99.90;;;;;;5070149;28;20423;-65
2023/10/20 08:59:31;;;;;;;12.30;11.03;;;16.40;99.90;;;;;;5072229;28;20406;-65
2023/10/20 09:01:57;;;;;;;11.50;10.40;;;16.30;99.90;;;;;;5071347;28;20457;-65
2023/10/20 09:04:24;;;;;;;11.17;10.27;;;16.30;99.90;;;;;;5072154;28;20418;-65
2023/10/20 09:06:51;;;;;;;10.50;9.53;;;16.30;99.90;;;;;;5071066;28;20408;-65
2023/10/20 09:09:17;;;;;;;11.13;10.23;;;16.30;99.90;;;;;;5072077;28;20742;-65
2023/10/20 09:11:43;;;;;;;11.80;10.70;;;16.30;99.90;;;;;;5071291;28;20407;-65
2023/10/20 09:14:12;;;;;;;11.37;9.90;;;16.30;99.90;;;;;;5070831;28;20227;-65
2023/10/20 09:16:39;;;;;;;11.30;10.27;;;16.30;99.90;;;;;;5070898;28;20798;-65
2023/10/20 09:19:05;;;;;;;11.20;10.20;;;16.30;99.90;;;;;;5072118;28;20493;-65
2023/10/20 09:21:31;;;;;;;12.33;11.13;;;16.30;99.90;;;;;;5071942;28;20835;-65
2023/10/20 09:23:58;;;;;;;11.17;10.17;;;16.30;99.90;;;;;;5071294;28;20200;-65
2023/10/20 09:26:29;;;;;;;10.77;9.97;;;16.40;99.90;;;;;;5072217;28;20786;-65
2023/10/20 09:28:56;;;;;;;10.80;9.90;;;16.40;99.90;;;;;;5069554;28;20479;-65
2023/10/20 09:31:23;;;;;;;11.60;10.50;;;16.40;99.90;;;;;;5070095;28;20437;-65
2023/10/20 09:33:49;;;;;;;10.67;9.77;;;16.40;99.90;;;;;;5053597;28;20439;-65
2023/10/20 09:36:16;;;;;;;11.40;10.50;;;16.40;99.90;;;;;;5051720;28;20455;-65
2023/10/20 09:38:49;;;;;;;12.00;10.97;;;16.40;99.90;;;;;;5050956;28;20491;-65
2023/10/20 09:41:17;;;;;;;8.63;7.90;;;16.40;99.90;;;;;;5051815;28;20416;-65
2023/10/20 09:43:52;;;;;;;10.53;9.67;;;16.40;99.90;;;;;;5050870;28;20834;-65
2023/10/20 09:46:57;;;;;;;8.40;7.70;;;16.50;99.90;;;;;;5055603;28;20391;-65
2023/10/20 09:49:26;;;;;;;8.73;8.00;;;16.40;99.90;;;;;;5055600;28;20804;-65
2023/10/20 09:51:53;;;;;;;9.40;8.60;;;16.40;99.90;;;;;;5054639;28;20756;-65
2023/10/20 09:54:31;;;;;;;10.10;9.30;;;16.40;99.90;;;;;;5055274;28;20407;-65
2023/10/20 09:56:57;;;;;;;8.93;8.20;;;16.40;99.90;;;;;;5032496;28;21146;-65
2023/10/20 09:59:25;;;;;;;8.53;7.83;;;16.50;99.90;;;;;;5035404;28;20811;-65
2023/10/20 10:01:55;;;;;;;9.07;8.37;;;16.40;99.90;;;;;;5034139;28;20401;-65
2023/10/20 10:04:33;;;;;;;10.70;9.90;;;16.40;99.90;;;;;;5035288;28;20413;-65
2023/10/20 10:07:07;;;;;;;9.57;8.80;;;16.40;99.90;;;;;;5016913;28;21224;-65
2023/10/20 10:09:43;;;;;;;9.20;8.50;;;16.40;99.90;;;;;;5035275;28;20420;-65
2023/10/20 10:12:10;;;;;;;9.37;8.50;;;16.40;99.90;;;;;;5035186;28;20397;-65
2023/10/20 10:14:37;;;;;;;8.20;7.60;;;16.40;99.90;;;;;;5034806;28;20405;-65
2023/10/20 10:17:10;;;;;;;8.53;7.93;;;16.40;99.90;;;;;;5016975;28;20409;-65
2023/10/20 10:19:48;;;;;;;10.13;9.30;;;16.40;99.90;;;;;;5035080;28;20397;-65
2023/10/20 10:22:15;;;;;;;9.33;8.60;;;16.40;99.90;;;;;;5034966;28;20765;-66
2023/10/20 10:24:59;;;;;;;8.60;8.00;;;16.40;99.90;;;;;;5034084;28;20401;-65
2023/10/20 10:27:26;;;;;;;10.50;9.70;;;16.40;99.90;;;;;;5040645;28;20427;-65
2023/10/20 10:30:00;;;;;;;9.80;9.00;;;16.40;99.90;;;;;;5053975;28;20422;-65
2023/10/20 10:32:36;;;;;;;9.60;8.80;;;16.40;99.90;;;;;;5054517;28;20452;-64
2023/10/20 10:35:05;;;;;;;11.40;10.43;;;16.40;99.90;;;;;;5054044;28;20443;-65
2023/10/20 10:37:37;;;;;;;9.87;9.17;;;16.40;99.90;;;;;;5054538;28;20835;-65
2023/10/20 10:40:07;;;;;;;10.20;9.47;;;16.40;99.90;;;;;;5054020;28;20470;-66
2023/10/20 10:42:43;;;;;;;9.47;8.67;;;16.40;99.90;;;;;;5036903;28;20388;-65
2023/10/20 10:45:34;;;;;;;8.47;7.77;;;16.40;99.90;;;;;;5054196;28;20407;-65
2023/10/20 10:48:08;;;;;;;10.27;9.50;;;16.40;99.90;;;;;;5023562;28;20549;-66
2023/10/20 10:50:40;;;;;;;9.80;9.10;;;16.40;99.90;;;;;;5038995;28;20417;-66
2023/10/20 10:53:07;;;;;;;7.43;6.93;;;16.50;99.90;;;;;;5043809;28;20464;-62
2023/10/20 10:55:37;;;;;;;10.60;9.80;;;16.40;99.90;;;;;;5046430;28;20452;-61
2023/10/20 10:58:13;;;;;;;8.07;7.33;;;16.40;99.90;;;;;;5047098;28;20490;-61
2023/10/20 11:00:40;;;;;;;10.53;9.67;;;16.40;99.90;;;;;;5048446;28;20464;-69
2023/10/20 11:03:07;;;;;;;9.67;9.07;;;16.50;99.90;;;;;;5026096;28;20478;-61
2023/10/20 11:05:33;;;;;;;8.50;8.00;;;16.50;99.90;;;;;;5051745;28;20534;-61
2023/10/20 11:08:04;;;;;;;8.20;7.63;;;16.50;99.90;;;;;;5052876;28;20404;-61
2023/10/20 11:10:34;;;;;;;9.30;8.60;;;16.50;99.90;;;;;;5036509;28;20499;-61
2023/10/20 11:13:08;;;;;;;9.63;8.93;;;16.50;99.90;;;;;;5042303;28;20427;-61
2023/10/20 11:15:35;;;;;;;8.50;7.90;;;16.50;99.90;;;;;;5040529;28;20444;-61
2023/10/20 11:18:02;;;;;;;8.23;7.63;;;16.50;99.90;;;;;;5049294;28;20428;-62
2023/10/20 11:20:32;;;;;;;7.40;6.90;;;16.50;99.90;;;;;;5042086;28;20769;-63
2023/10/20 11:22:58;;;;;;;8.03;7.47;;;16.50;99.90;;;;;;5032705;28;20539;-62
2023/10/20 11:25:27;;;;;;;8.23;7.73;;;16.50;99.90;;;;;;5036568;28;20421;-62
2023/10/20 11:27:56;;;;;;;7.47;6.93;;;16.50;99.90;;;;;;5050416;28;20779;-62
2023/10/20 11:30:27;;;;;;;8.20;7.60;;;16.50;99.90;;;;;;5049906;28;20896;-62
2023/10/20 11:32:55;;;;;;;7.80;7.30;;;16.50;99.90;;;;;;5047625;28;20452;-63
2023/10/20 11:35:26;;;;;;;6.97;6.47;;;16.50;99.90;;;;;;5052776;28;20462;-62
2023/10/20 11:37:53;;;;;;;6.70;6.20;;;16.50;99.90;;;;;;5042099;28;20466;-61
2023/10/20 11:40:20;;;;;;;5.80;5.40;;;16.50;99.90;;;;;;5049377;28;20425;-61
2023/10/20 11:42:46;;;;;;;6.17;5.77;;;16.40;99.90;;;;;;5048997;28;20465;-63
2023/10/20 11:45:12;;;;;;;6.50;6.10;;;16.50;99.90;;;;;;5035704;28;20408;-61
2023/10/20 11:47:38;;;;;;;6.73;6.33;;;16.40;99.90;;;;;;5046800;28;20428;-62
2023/10/20 11:50:05;;;;;;;7.17;6.50;;;16.40;99.90;;;;;;5037385;28;20436;-69
2023/10/20 11:52:31;;;;;;;6.47;5.97;;;16.30;99.90;;;;;;5042533;28;20461;-65
2023/10/20 11:54:57;;;;;;;6.37;5.80;;;16.30;99.90;;;;;;5036351;28;20952;-67
2023/10/20 11:57:22;;;;;;;6.87;6.37;;;16.30;99.90;;;;;;5043509;28;20413;-68
2023/10/20 11:59:48;;;;;;;5.90;5.60;;;16.30;99.90;;;;;;5032326;28;20186;-67
2023/10/20 12:02:14;;;;;;;7.00;6.40;;;16.30;99.90;;;;;;5033112;28;20170;-67
2023/10/20 12:04:40;;;;;;;7.43;6.93;;;16.30;99.90;;;;;;5033247;28;20206;-67
2023/10/20 12:07:05;;;;;;;6.37;5.97;;;16.20;99.90;;;;;;5032249;28;20174;-68
2023/10/20 12:09:31;;;;;;;6.80;6.30;;;16.20;99.90;;;;;;5032970;28;20177;-68
2023/10/20 12:11:58;;;;;;;6.43;5.93;;;16.20;99.90;;;;;;5032271;28;20500;-67
2023/10/20 12:14:26;;;;;;;8.10;7.60;;;16.20;99.90;;;;;;5033393;28;20166;-68
2023/10/20 12:16:52;;;;;;;7.70;7.20;;;16.20;99.90;;;;;;5032037;28;20429;-67
2023/10/20 12:19:18;;;;;;;8.20;7.70;;;16.20;99.90;;;;;;5032803;28;20476;-68
2023/10/20 12:21:44;;;;;;;7.70;7.30;;;16.20;99.90;;;;;;5032635;28;20174;-64
2023/10/20 12:24:10;;;;;;;7.70;7.17;;;16.10;99.90;;;;;;5042686;28;20530;-68
2023/10/20 12:26:36;;;;;;;7.20;6.50;;;16.00;99.90;;;;;;5035464;28;20883;-68
2023/10/20 12:29:03;;;;;;;7.90;7.40;;;16.00;99.90;;;;;;5049847;28;20178;-68
2023/10/20 12:31:29;;;;;;;8.70;8.10;;;15.90;99.90;;;;;;5034528;28;20404;-67
2023/10/20 12:33:55;;;;;;;7.97;7.47;;;15.90;99.90;;;;;;5051303;28;20533;-68
2023/10/20 12:36:24;;;;;;;7.33;6.83;;;16.00;99.90;;;;;;5050731;28;20558;-69
2023/10/20 12:38:51;;;;;;;7.30;6.80;;;16.00;99.90;;;;;;5051657;28;20438;-68
2023/10/20 12:41:17;;;;;;;8.37;7.70;;;16.00;99.90;;;;;;5034799;28;20759;-70
2023/10/20 12:43:45;;;;;;;7.53;7.00;;;16.00;99.90;;;;;;5052372;28;20196;-69
2023/10/20 12:46:11;;;;;;;7.57;7.07;;;16.00;99.90;;;;;;5052128;28;20260;-69
2023/10/20 12:48:38;;;;;;;8.00;7.40;;;16.00;99.90;;;;;;5052079;28;20519;-69
2023/10/20 12:51:08;;;;;;;9.13;8.43;;;16.00;99.90;;;;;;5051504;28;20516;-69
2023/10/20 12:53:34;;;;;;;8.00;7.40;;;16.00;99.90;;;;;;5052260;28;20400;-68
2023/10/20 12:56:00;;;;;;;7.33;6.93;;;16.00;99.90;;;;;;5051332;28;20451;-69
2023/10/20 12:58:25;;;;;;;7.43;6.93;;;16.00;99.90;;;;;;5052081;28;20404;-68
2023/10/20 13:00:51;;;;;;;8.00;7.50;;;16.00;99.90;;;;;;5033517;28;20567;-69
2023/10/20 13:03:18;;;;;;;7.47;6.87;;;16.00;99.90;;;;;;5052276;28;20173;-68
2023/10/20 13:05:44;;;;;;;8.23;7.70;;;16.00;99.90;;;;;;5049676;28;20185;-70
2023/10/20 13:08:13;;;;;;;7.63;7.13;;;16.00;99.90;;;;;;5051019;28;20938;-69
2023/10/20 13:10:39;;;;;;;8.30;7.73;;;16.00;99.90;;;;;;5052141;28;20412;-68
2023/10/20 13:13:06;;;;;;;8.10;7.40;;;16.00;99.90;;;;;;5051296;28;20495;-68
2023/10/20 13:15:33;;;;;;;8.10;7.47;;;16.00;99.90;;;;;;5051878;28;20523;-69
2023/10/20 13:17:59;;;;;;;8.60;8.00;;;16.00;99.90;;;;;;5051273;28;20791;-68